Kitsap Lake, Washington
Current Conditions -  °F | °C
As of 4:35 PM on Tuesday 25 Nov 2014 (Local Time) from KPWT Reporting Station
Overcast Overcast  
Wind Chill: 46°   Ceiling: 400
Heat Index: 48°   Visibility: 7mi
Dew Point: 48°   Wind: 5mph
Humidity: 100%   Direction: 220°SW
Pressure: 30.18"   Gusts: NA
Location:  47.5691°N, 122.818°W
Report Text: KPWT 260035Z AUTO 22004KT 7SM BKN004 OVC011 09/09 A3018 RMK AO1 P0001
Loading
Personal Weather Stations






























Interactive Weather Map New forecast layout! Learn more

10-Day Weather Forecast

Advertisements
Track Severe Weather on mobile